Time;durP1;ratioP1;P1;durP2;ratioP2;P2;SDS_P1;SDS_P2;PMS_P1;PMS_P2;Temp;Humidity;BMP_temperature;BMP_pressure;BME280_temperature;BME280_humidity;BME280_pressure;Samples;Min_cycle;Max_cycle;Signal;HPM_P1;HPM_P2
2022/05/10 00:01:35;;;;;;;7.10;3.78;;;;;;;13.52;58.56;101775.66;4994304;28;20026;-92
2022/05/10 00:04:02;;;;;;;7.90;3.78;;;;;;;13.59;58.84;101787.50;4994320;28;20036;-90
2022/05/10 00:06:28;;;;;;;5.95;3.30;;;;;;;13.62;58.60;101789.97;5010753;28;20053;-89
2022/05/10 00:08:53;;;;;;;4.85;3.67;;;;;;;13.63;58.07;101789.88;4994269;28;20022;-89
2022/05/10 00:11:19;;;;;;;6.70;3.83;;;;;;;13.59;58.25;101803.09;4994291;28;20037;-91
2022/05/10 00:13:44;;;;;;;6.55;3.42;;;;;;;13.68;57.74;101795.75;4978042;28;20037;-90
2022/05/10 00:16:12;;;;;;;6.28;3.70;;;;;;;13.68;57.43;101793.16;4994138;28;20499;-90
2022/05/10 00:18:38;;;;;;;7.78;3.80;;;;;;;13.59;57.60;101777.09;4977896;28;20041;-90
2022/05/10 00:21:03;;;;;;;6.68;3.35;;;;;;;13.53;57.45;101765.19;4994301;28;20033;-90
2022/05/10 00:23:28;;;;;;;10.38;3.92;;;;;;;13.63;57.39;101789.88;4993927;28;20033;-90
2022/05/10 00:25:54;;;;;;;6.22;3.70;;;;;;;13.33;57.20;101765.22;4994222;28;20446;-92
2022/05/10 00:28:19;;;;;;;6.43;3.70;;;;;;;13.62;56.34;101792.56;5010465;28;20084;-90
2022/05/10 00:30:45;;;;;;;4.82;3.38;;;;;;;13.64;56.85;101790.72;4994060;28;20034;-91
2022/05/10 00:33:15;;;;;;;5.18;3.38;;;;;;;13.64;56.74;101790.72;4977558;28;20028;-90
2022/05/10 00:35:40;;;;;;;6.57;3.30;;;;;;;13.67;56.52;101790.63;4978084;28;20092;-90
2022/05/10 00:38:06;;;;;;;6.53;3.17;;;;;;;13.70;56.08;101785.28;5010291;28;20030;-90
2022/05/10 00:40:33;;;;;;;6.10;3.47;;;;;;;13.57;56.00;101774.56;4993878;28;20053;-90
2022/05/10 00:43:19;;;;;;;4.90;3.33;;;;;;;13.64;56.01;101790.72;4994070;28;20107;-90
2022/05/10 00:45:44;;;;;;;5.00;3.25;;;;;;;13.63;55.63;101787.28;5010329;28;20044;-90
2022/05/10 00:48:25;;;;;;;5.75;3.00;;;;;;;13.47;55.75;101763.72;5009893;28;20021;-90
2022/05/10 00:51:12;;;;;;;4.18;3.10;;;;;;;13.39;56.08;101747.59;4993608;28;20104;-90
2022/05/10 00:53:47;;;;;;;5.07;3.30;;;;;;;13.56;55.77;101788.47;5010197;28;20080;-91
2022/05/10 00:56:24;;;;;;;5.13;3.22;;;;;;;13.51;55.67;101780.03;5011002;28;20040;-90
2022/05/10 00:59:00;;;;;;;4.28;3.20;;;;;;;13.49;55.92;101798.28;4994449;28;20035;-90
2022/05/10 01:01:32;;;;;;;6.38;3.40;;;;;;;13.35;55.88;101785.00;5009717;28;20089;-90
2022/05/10 01:04:17;;;;;;;4.15;3.10;;;;;;;13.29;56.08;101795.69;4977996;28;20080;-90
2022/05/10 01:07:11;;;;;;;4.45;3.03;;;;;;;13.12;56.73;101787.69;5010056;28;20137;-90
2022/05/10 01:09:57;;;;;;;6.18;2.92;;;;;;;12.93;57.05;101772.03;5010624;28;20100;-90
2022/05/10 01:12:33;;;;;;;4.22;3.28;;;;;;;13.01;57.24;101785.53;4981339;28;20026;-89
2022/05/10 01:15:14;;;;;;;4.93;3.13;;;;;;;12.74;57.46;101756.31;4997266;28;20422;-91
2022/05/10 01:17:40;;;;;;;8.00;3.42;;;;;;;12.89;57.88;101779.09;4982299;28;20034;-90
2022/05/10 01:20:06;;;;;;;5.35;3.38;;;;;;;12.86;58.44;101780.94;4997229;28;20121;-90
2022/05/10 01:23:03;;;;;;;4.75;3.40;;;;;;;12.85;58.93;101781.88;4997462;28;20026;-89
2022/05/10 01:26:01;;;;;;;4.15;3.28;;;;;;;12.78;58.75;101781.28;5014639;28;20022;-91
2022/05/10 01:28:31;;;;;;;5.18;3.75;;;;;;;12.69;59.00;101767.81;5013513;28;20090;-89
2022/05/10 01:31:07;;;;;;;6.40;3.55;;;;;;;12.80;59.12;101787.25;5014102;28;20030;-89
2022/05/10 01:33:35;;;;;;;6.75;3.90;;;;;;;12.72;59.41;101789.31;4998203;28;20065;-90
2022/05/10 01:36:03;;;;;;;4.95;3.60;;;;;;;12.69;59.72;101789.44;4997010;28;20034;-90
2022/05/10 01:38:34;;;;;;;5.60;3.67;;;;;;;12.73;60.16;101796.19;5014165;28;20045;-91
2022/05/10 01:41:26;;;;;;;5.82;3.85;;;;;;;12.73;59.45;101803.97;5013284;28;20022;-90
2022/05/10 01:44:13;;;;;;;6.30;3.40;;;;;;;12.66;59.90;101794.72;5010191;28;20069;-90
2022/05/10 01:46:39;;;;;;;5.88;3.75;;;;;;;12.75;59.51;101798.72;5013822;28;20272;-89
2022/05/10 01:49:27;;;;;;;8.65;4.50;;;;;;;12.77;59.65;101789.94;4996582;28;20033;-89
2022/05/10 01:51:57;;;;;;;6.45;4.05;;;;;;;12.60;60.19;101766.44;5013982;28;20034;-90
2022/05/10 01:54:41;;;;;;;6.38;4.13;;;;;;;12.62;60.17;101787.97;4996906;28;20124;-90
2022/05/10 01:57:11;;;;;;;4.63;3.78;;;;;;;12.45;60.62;101764.41;5013932;28;20041;-90
2022/05/10 01:59:38;;;;;;;7.68;3.80;;;;;;;12.41;60.26;101758.50;4980076;28;20113;-89
2022/05/10 02:02:03;;;;;;;5.63;4.07;;;;;;;12.65;60.37;101793.03;4996556;28;20036;-90
2022/05/10 02:04:31;;;;;;;6.53;4.43;;;;;;;12.72;60.13;101793.66;4996416;28;20029;-90
2022/05/10 02:07:05;;;;;;;6.18;4.97;;;;;;;12.67;60.82;101791.22;4996538;28;20116;-91
2022/05/10 02:09:42;;;;;;;7.32;4.82;;;;;;;12.65;60.79;101782.66;4996489;28;20076;-89
2022/05/10 02:12:13;;;;;;;7.43;4.68;;;;;;;12.73;60.67;101788.41;5012208;28;20052;-90
2022/05/10 02:14:59;;;;;;;8.82;4.72;;;;;;;12.76;60.32;101796.06;4996609;28;20021;-90
2022/05/10 02:17:55;;;;;;;6.10;4.40;;;;;;;12.85;59.89;101794.84;5012552;28;20066;-90
2022/05/10 02:20:30;;;;;;;5.90;4.50;;;;;;;12.64;60.28;101796.53;4998653;28;20042;-89
2022/05/10 02:23:01;;;;;;;6.57;4.25;;;;;;;12.53;61.32;101803.91;4980793;28;20057;-90
2022/05/10 02:25:38;;;;;;;6.93;4.20;;;;;;;12.56;61.00;101798.59;5013431;28;20029;-89
2022/05/10 02:28:22;;;;;;;6.55;4.20;;;;;;;12.52;61.18;101786.63;4996695;28;20029;-89
2022/05/10 02:30:47;;;;;;;6.57;4.20;;;;;;;12.57;61.13;101787.28;5013253;28;20030;-90
2022/05/10 02:33:14;;;;;;;5.55;4.10;;;;;;;12.58;60.89;101794.16;4979446;28;20493;-90
2022/05/10 02:35:51;;;;;;;7.88;4.25;;;;;;;12.52;61.56;101797.03;4979652;28;20033;-90
2022/05/10 02:38:18;;;;;;;8.43;4.30;;;;;;;12.56;61.21;101793.38;4996400;28;20582;-89
2022/05/10 02:40:44;;;;;;;6.07;4.28;;;;;;;12.56;61.07;101801.19;4995621;28;20117;-89
2022/05/10 02:43:15;;;;;;;9.45;4.40;;;;;;;12.46;61.42;101792.91;4995329;28;20025;-90
2022/05/10 02:45:40;;;;;;;8.10;4.68;;;;;;;12.33;61.56;101789.94;4979321;28;20113;-90
2022/05/10 02:48:12;;;;;;;6.40;4.20;;;;;;;12.43;61.93;101807.75;4979214;28;20046;-89
2022/05/10 02:50:38;;;;;;;6.63;4.38;;;;;;;12.46;61.91;101808.47;4978663;28;20054;-89
2022/05/10 02:53:03;;;;;;;9.25;4.75;;;;;;;12.43;61.97;101812.94;4979120;28;20119;-88
2022/05/10 02:55:52;;;;;;;6.43;4.22;;;;;;;12.10;61.53;101768.34;4995240;28;20026;-89
2022/05/10 02:58:20;;;;;;;7.40;4.50;;;;;;;12.27;61.10;101810.91;4995218;28;20033;-89
2022/05/10 03:00:46;;;;;;;7.95;4.13;;;;;;;12.25;60.73;101796.31;4995188;28;20479;-90
2022/05/10 03:03:14;;;;;;;4.68;3.78;;;;;;;12.35;60.44;101795.91;4994865;28;20049;-89
2022/05/10 03:05:39;;;;;;;5.97;3.90;;;;;;;12.55;59.88;101817.66;4994914;28;20407;-89
2022/05/10 03:08:05;;;;;;;8.00;4.03;;;;;;;12.56;59.99;101820.19;5010721;28;20026;-88
2022/05/10 03:10:32;;;;;;;8.57;4.43;;;;;;;12.91;58.72;101823.19;4994709;28;20030;-88
2022/05/10 03:12:58;;;;;;;6.07;3.70;;;;;;;12.85;59.55;101816.47;4978384;28;20068;-89
2022/05/10 03:15:24;;;;;;;8.70;4.10;;;;;;;12.54;59.93;101821.16;5011071;28;20384;-87
2022/05/10 03:17:49;;;;;;;67.00;8.25;;;;;;;12.47;60.17;101815.34;4978337;28;20029;-89
2022/05/10 03:20:15;;;;;;;76.05;8.70;;;;;;;12.65;61.12;101816.41;5010730;28;20022;-88
2022/05/10 03:22:40;;;;;;;24.88;5.05;;;;;;;13.54;57.45;101794.63;5010900;28;20108;-89
2022/05/10 03:25:06;;;;;;;16.42;5.13;;;;;;;13.84;56.13;101821.06;4994683;28;20029;-87
2022/05/10 03:27:34;;;;;;;8.65;3.95;;;;;;;13.51;57.16;101826.81;5010323;28;20034;-87
2022/05/10 03:30:02;;;;;;;9.32;3.83;;;;;;;13.29;57.77;101819.06;4994771;28;20037;-87
2022/05/10 03:32:28;;;;;;;11.05;3.90;;;;;;;13.53;57.18;101824.16;4992363;28;20034;-93
2022/05/10 03:34:54;;;;;;;6.70;4.22;;;;;;;13.35;57.15;101826.59;4978418;28;20022;-95
2022/05/10 03:37:19;;;;;;;8.50;4.50;;;;;;;13.17;58.17;101822.13;4994100;28;20032;-88
2022/05/10 03:39:45;;;;;;;8.30;4.07;;;;;;;13.03;58.79;101824.44;4993692;28;20512;-92
2022/05/10 03:42:10;;;;;;;8.35;4.15;;;;;;;12.89;58.91;101805.06;4993982;28;20025;-90
2022/05/10 03:44:36;;;;;;;10.10;4.70;;;;;;;12.81;59.37;101825.31;4993675;28;20105;-89
2022/05/10 03:47:01;;;;;;;9.38;4.53;;;;;;;12.71;59.65;101825.72;4994230;28;20480;-89
2022/05/10 03:49:27;;;;;;;7.57;4.40;;;;;;;12.77;59.56;101828.06;4994264;28;20045;-89
2022/05/10 03:51:55;;;;;;;8.50;4.68;;;;;;;12.66;60.64;101825.03;4994462;28;20052;-90
2022/05/10 03:54:24;;;;;;;7.97;4.90;;;;;;;12.67;60.45;101831.91;4994965;28;20105;-91
2022/05/10 03:56:50;;;;;;;8.55;4.85;;;;;;;12.54;60.62;101815.97;4993805;28;20040;-90
2022/05/10 03:59:17;;;;;;;7.80;4.95;;;;;;;12.58;60.85;101833.09;4994073;28;20061;-91
2022/05/10 04:01:43;;;;;;;8.75;5.00;;;;;;;12.40;61.14;101811.31;4994502;28;20061;-91
2022/05/10 04:04:08;;;;;;;7.55;5.15;;;;;;;12.41;61.71;101828.56;4992324;28;20570;-92
2022/05/10 04:06:34;;;;;;;7.07;4.65;;;;;;;12.38;61.67;101833.84;4993460;28;20037;-91
2022/05/10 04:08:59;;;;;;;8.07;5.15;;;;;;;12.37;61.60;101823.53;4993884;28;20034;-91
2022/05/10 04:11:25;;;;;;;10.20;5.57;;;;;;;12.46;61.61;101838.78;5013732;28;20022;-95
2022/05/10 04:13:50;;;;;;;9.85;5.35;;;;;;;12.44;61.41;101832.78;5013865;28;20022;-91
2022/05/10 04:16:16;;;;;;;7.47;5.15;;;;;;;12.54;61.04;101849.72;5011268;28;20037;-89
2022/05/10 04:18:42;;;;;;;11.25;5.13;;;;;;;12.50;61.11;101849.00;5008917;28;20022;-88
2022/05/10 04:21:08;;;;;;;12.20;5.45;;;;;;;12.50;60.72;101835.19;5008116;28;20040;-86
2022/05/10 04:23:33;;;;;;;11.23;5.30;;;;;;;12.64;60.40;101848.47;4994628;28;20026;-92
2022/05/10 04:26:04;;;;;;;8.20;5.28;;;;;;;12.70;60.65;101861.22;4993320;28;20475;-85
2022/05/10 04:28:30;;;;;;;11.20;5.45;;;;;;;12.71;60.24;101849.94;4992470;28;20025;-87
2022/05/10 04:30:56;;;;;;;9.25;5.70;;;;;;;12.76;60.33;101852.34;5024537;28;20045;-91
2022/05/10 04:33:21;;;;;;;12.30;6.40;;;;;;;12.77;60.79;101860.06;4992568;28;20021;-88
2022/05/10 04:35:47;;;;;;;15.43;6.90;;;;;;;12.85;60.21;101857.19;5026065;28;20037;-91
2022/05/10 04:38:12;;;;;;;9.88;6.55;;;;;;;12.86;59.36;101858.88;4995049;28;20077;-94
2022/05/10 04:43:22;;;;;;;13.98;6.55;;;;;;;12.96;59.57;101869.75;5012772;28;20156;-89
2022/05/10 04:45:47;;;;;;;11.63;6.40;;;;;;;13.07;59.06;101872.75;5013734;28;20038;-90
2022/05/10 04:48:13;;;;;;;9.55;6.43;;;;;;;13.05;58.88;101866.78;4997452;28;20069;-91
2022/05/10 04:50:38;;;;;;;9.90;6.60;;;;;;;13.05;59.08;101869.38;5013898;28;20077;-93
2022/05/10 04:53:04;;;;;;;15.07;8.32;;;;;;;13.12;59.58;101870.84;4997488;28;20058;-91
2022/05/10 04:55:29;;;;;;;14.52;8.57;;;;;;;13.15;59.81;101862.91;4984409;28;20442;-88
2022/05/10 04:57:55;;;;;;;31.15;24.17;;;;;;;13.20;59.95;101879.22;4996389;28;20030;-94
2022/05/10 05:00:20;;;;;;;16.60;7.60;;;;;;;13.30;59.31;101883.13;4976505;28;20524;-84
2022/05/10 05:02:46;;;;;;;9.68;6.55;;;;;;;13.29;59.86;101868.47;4991993;28;20034;-87
2022/05/10 05:05:12;;;;;;;10.75;6.43;;;;;;;13.49;59.54;101881.47;4976744;28;20040;-87
2022/05/10 05:07:38;;;;;;;11.88;6.80;;;;;;;13.48;59.33;101872.00;4999911;28;20087;-88
2022/05/10 05:10:04;;;;;;;10.20;7.75;;;;;;;13.48;59.36;101869.41;5005791;28;20037;-82
2022/05/10 05:12:33;;;;;;;9.70;7.65;;;;;;;13.38;59.73;101841.25;5003371;28;20048;-90
2022/05/10 05:14:59;;;;;;;13.07;8.68;;;;;;;13.81;59.54;101886.25;5015190;28;20034;-93
2022/05/10 05:17:25;;;;;;;17.83;9.52;;;;;;;13.81;59.37;101876.69;4990617;28;20037;-89
2022/05/10 05:19:50;;;;;;;16.00;9.10;;;;;;;13.98;60.60;101868.16;4990261;28;20025;-89
2022/05/10 05:22:16;;;;;;;19.65;9.32;;;;;;;14.07;58.74;101860.81;5009354;28;21604;-91
2022/05/10 05:24:42;;;;;;;16.42;7.88;;;;;;;14.20;58.73;101874.13;5010069;28;20068;-89
2022/05/10 05:27:07;;;;;;;14.98;7.32;;;;;;;14.33;57.99;101871.81;4995168;28;20034;-87
2022/05/10 05:29:34;;;;;;;10.55;6.60;;;;;;;14.36;57.67;101863.88;5010691;28;20107;-93
2022/05/10 05:32:00;;;;;;;11.35;6.88;;;;;;;14.49;57.72;101870.25;4999311;28;20033;-87
2022/05/10 05:34:25;;;;;;;13.82;7.10;;;;;;;14.66;57.97;101873.84;4977347;28;20029;-90
2022/05/10 05:39:35;;;;;;;11.70;7.10;;;;;;;14.86;57.55;101878.97;5007973;28;20483;-94
2022/05/10 05:42:05;;;;;;;41.50;29.38;;;;;;;14.80;56.55;101861.84;4993178;28;20022;-94
2022/05/10 05:44:31;;;;;;;10.00;6.88;;;;;;;15.03;56.52;101884.19;4992198;28;20033;-88
2022/05/10 05:46:57;;;;;;;8.98;5.82;;;;;;;15.12;56.38;101885.53;5021051;28;20038;-91
2022/05/10 05:49:25;;;;;;;10.05;6.10;;;;;;;15.20;56.58;101867.75;5016761;28;20128;-86
2022/05/10 05:51:57;;;;;;;13.15;6.10;;;;;;;15.35;55.15;101887.03;4994712;28;20033;-91
2022/05/10 05:54:23;;;;;;;10.10;5.45;;;;;;;15.50;55.50;101876.69;4988813;28;20423;-90
2022/05/10 05:56:48;;;;;;;9.07;5.55;;;;;;;15.62;54.88;101880.47;4995622;28;20053;-91
2022/05/10 05:59:17;;;;;;;9.65;5.82;;;;;;;15.66;53.55;101871.59;5003185;28;20046;-95
2022/05/10 06:01:42;;;;;;;10.13;4.68;;;;;;;15.82;53.67;101878.63;5000722;28;20053;-92
2022/05/10 06:04:08;;;;;;;12.13;6.68;;;;;;;15.91;53.48;101875.53;4977863;28;20107;-88
2022/05/10 06:06:34;;;;;;;10.73;6.22;;;;;;;15.98;53.68;101884.75;5008082;28;20454;-92
2022/05/10 06:08:59;;;;;;;9.43;5.63;;;;;;;15.82;53.54;101848.16;5009129;28;20072;-89
2022/05/10 06:11:25;;;;;;;8.57;5.68;;;;;;;15.94;53.93;101876.25;5009383;28;20057;-85
2022/05/10 06:13:52;;;;;;;8.43;5.30;;;;;;;16.09;53.90;101879.81;5004264;28;20085;-85
2022/05/10 06:16:17;;;;;;;8.63;5.50;;;;;;;16.06;53.06;101856.50;4986744;28;20183;-83
2022/05/10 06:18:43;;;;;;;9.13;5.68;;;;;;;16.49;53.68;101880.31;5003874;28;20439;-91
2022/05/10 06:21:08;;;;;;;10.65;5.90;;;;;;;16.58;53.85;101883.28;4972853;28;20034;-88
2022/05/10 06:23:34;;;;;;;9.50;5.40;;;;;;;16.66;52.23;101884.66;4987735;28;20037;-92
2022/05/10 06:26:00;;;;;;;11.10;5.75;;;;;;;16.49;52.59;101886.38;4987651;28;20048;-94
2022/05/10 06:28:25;;;;;;;8.15;5.57;;;;;;;16.68;53.26;101883.66;4971733;28;21149;-84
2022/05/10 06:30:51;;;;;;;8.13;5.70;;;;;;;16.69;52.44;101887.94;5006868;28;20054;-91
2022/05/10 06:33:16;;;;;;;12.40;6.93;;;;;;;16.73;52.58;101886.88;4982294;28;20072;-86
2022/05/10 06:35:43;;;;;;;10.18;7.57;;;;;;;16.92;52.47;101886.72;4979648;28;20419;-84
2022/05/10 06:38:19;;;;;;;13.52;9.13;;;;;;;16.90;51.95;101872.84;5002265;28;20160;-83
2022/05/10 06:40:45;;;;;;;29.17;24.77;;;;;;;17.03;51.61;101893.94;4990091;28;20033;-86
2022/05/10 06:43:10;;;;;;;29.33;20.15;;;;;;;17.13;51.03;101895.13;4988970;28;20042;-89
2022/05/10 06:45:36;;;;;;;16.40;7.90;;;;;;;17.31;50.52;101888.84;4971756;28;20036;-92
2022/05/10 06:48:02;;;;;;;7.43;5.15;;;;;;;17.14;50.28;101886.34;4988463;28;20538;-85
2022/05/10 06:50:27;;;;;;;7.93;5.88;;;;;;;17.16;50.49;101884.47;5000618;28;20056;-90
2022/05/10 06:52:54;;;;;;;10.18;6.20;;;;;;;17.18;50.30;101896.53;4989740;28;20026;-88
2022/05/10 06:55:20;;;;;;;10.55;5.75;;;;;;;17.45;50.09;101903.75;5017594;28;20120;-90
2022/05/10 06:57:46;;;;;;;11.00;6.90;;;;;;;17.52;49.39;101872.84;4994048;28;20168;-92
2022/05/10 07:00:13;;;;;;;11.52;5.60;;;;;;;17.70;48.31;101892.75;5017883;28;20811;-95
2022/05/10 07:02:38;;;;;;;10.93;5.63;;;;;;;17.58;48.83;101881.16;4986849;28;20030;-87
2022/05/10 07:05:04;;;;;;;8.10;5.93;;;;;;;17.82;48.60;101888.56;4997604;28;20061;-88
2022/05/10 07:07:30;;;;;;;6.93;5.20;;;;;;;17.76;48.61;101889.75;5007478;28;20409;-93
2022/05/10 07:09:55;;;;;;;30.15;21.77;;;;;;;18.02;49.50;101886.44;5010822;28;20041;-92
2022/05/10 07:12:21;;;;;;;46.10;28.20;;;;;;;18.33;48.85;101882.78;4990118;28;20041;-92
2022/05/10 07:14:48;;;;;;;24.08;16.73;;;;;;;18.52;48.21;101884.25;5005849;28;20042;-94
2022/05/10 07:17:13;;;;;;;9.68;6.13;;;;;;;18.60;47.34;101890.72;5022368;28;20049;-90
2022/05/10 07:19:39;;;;;;;7.95;4.95;;;;;;;18.70;47.33;101888.38;5003481;28;20029;-93
2022/05/10 07:22:04;;;;;;;9.80;5.28;;;;;;;18.66;47.71;101862.44;4996778;28;20045;-93
2022/05/10 07:24:30;;;;;;;12.82;6.13;;;;;;;19.05;46.64;101893.16;4991049;28;20029;-92
2022/05/10 07:26:56;;;;;;;9.57;5.30;;;;;;;18.98;45.09;101890.09;4997966;28;20041;-86
2022/05/10 07:29:22;;;;;;;10.15;5.38;;;;;;;18.91;45.39;101888.81;4970772;28;20052;-94
2022/05/10 07:31:48;;;;;;;9.60;5.28;;;;;;;19.04;45.35;101888.84;4999624;28;20038;-89
2022/05/10 07:34:13;;;;;;;8.30;5.00;;;;;;;19.19;44.96;101891.34;4963379;28;20038;-84
2022/05/10 07:36:39;;;;;;;8.00;4.78;;;;;;;19.19;43.21;101883.47;4989148;28;20033;-88
2022/05/10 07:39:06;;;;;;;7.43;4.55;;;;;;;19.25;43.37;101895.31;5002791;28;20045;-86
2022/05/10 07:41:32;;;;;;;9.15;4.68;;;;;;;19.34;43.37;101891.25;5003527;28;20056;-93
2022/05/10 07:43:58;;;;;;;10.30;5.25;;;;;;;19.27;43.14;101887.34;4991029;28;20495;-94
2022/05/10 07:46:23;;;;;;;8.88;4.60;;;;;;;19.41;43.62;101892.53;4987212;28;20025;-86
2022/05/10 07:48:49;;;;;;;9.98;4.90;;;;;;;19.50;43.30;101899.81;4985849;28;20029;-86
2022/05/10 07:51:15;;;;;;;10.15;5.18;;;;;;;19.66;43.22;101889.97;4980449;28;20061;-87
2022/05/10 07:53:42;;;;;;;7.18;5.25;;;;;;;19.82;43.28;101881.09;4983088;28;20046;-86
2022/05/10 07:56:07;;;;;;;9.07;5.13;;;;;;;19.95;43.67;101889.78;4966277;28;20041;-86
2022/05/10 07:58:34;;;;;;;9.75;5.50;;;;;;;20.01;42.88;101886.75;4985371;28;20448;-91
2022/05/10 08:01:00;;;;;;;8.70;5.40;;;;;;;20.19;42.92;101876.78;5010700;28;20030;-89
2022/05/10 08:03:26;;;;;;;7.45;5.10;;;;;;;20.34;42.08;101873.91;4968976;28;20136;-86
2022/05/10 08:05:54;;;;;;;7.80;5.40;;;;;;;20.49;41.74;101871.19;5006135;28;20058;-90
2022/05/10 08:08:20;;;;;;;7.43;5.43;;;;;;;20.37;41.91;101870.22;4989771;28;20072;-87
2022/05/10 08:10:47;;;;;;;7.72;5.55;;;;;;;20.43;41.97;101871.59;4999570;28;20033;-93
2022/05/10 08:13:20;;;;;;;12.55;5.13;;;;;;;20.49;42.14;101850.16;4993545;28;20022;-95
2022/05/10 08:15:47;;;;;;;8.30;4.90;;;;;;;20.82;41.03;101881.91;5004134;28;20030;-93
2022/05/10 08:18:12;;;;;;;12.43;5.28;;;;;;;21.04;40.23;101880.34;4996883;28;20025;-88
2022/05/10 08:20:38;;;;;;;7.65;4.78;;;;;;;21.12;40.03;101878.81;5009016;28;20495;-93
2022/05/10 08:23:06;;;;;;;8.50;5.07;;;;;;;21.22;39.09;101884.25;4974543;28;20034;-85
2022/05/10 08:25:32;;;;;;;9.05;4.80;;;;;;;21.11;39.90;101871.06;5007906;28;20026;-85
2022/05/10 08:27:57;;;;;;;10.20;5.40;;;;;;;21.29;39.65;101882.88;5009548;28;20068;-90
2022/05/10 08:30:23;;;;;;;8.07;4.60;;;;;;;21.40;40.05;101885.56;4990448;28;20037;-90
2022/05/10 08:32:48;;;;;;;9.50;4.97;;;;;;;21.42;39.72;101870.47;5006725;28;20038;-89
2022/05/10 08:35:14;;;;;;;7.90;4.78;;;;;;;21.48;39.54;101885.81;5010048;28;20029;-95
2022/05/10 08:37:39;;;;;;;7.85;4.80;;;;;;;21.42;39.48;101873.09;4989636;28;20453;-88
2022/05/10 08:40:06;;;;;;;9.07;4.80;;;;;;;21.59;39.55;101881.53;5006044;28;20037;-83
2022/05/10 08:42:33;;;;;;;8.73;4.65;;;;;;;21.45;39.82;101865.00;5004929;28;20462;-85
2022/05/10 08:45:05;;;;;;;8.70;5.13;;;;;;;21.57;39.80;101867.66;4994908;28;20156;-88
2022/05/10 08:47:30;;;;;;;9.52;4.63;;;;;;;21.75;40.69;101880.28;5002564;28;20033;-84
2022/05/10 08:50:07;;;;;;;6.75;4.70;;;;;;;21.99;39.19;101874.06;4990764;28;20395;-86
2022/05/10 08:52:34;;;;;;;8.15;4.10;;;;;;;22.03;38.31;101860.53;4985344;28;20112;-86
2022/05/10 08:55:00;;;;;;;6.70;4.75;;;;;;;22.10;38.64;101863.56;4986941;28;20609;-84
2022/05/10 08:57:48;;;;;;;8.07;4.03;;;;;;;22.17;37.56;101866.56;4986841;28;20052;-84
2022/05/10 09:00:36;;;;;;;8.23;4.30;;;;;;;22.47;37.63;101861.50;5023934;28;20025;-90
2022/05/10 09:03:38;;;;;;;5.70;3.78;;;;;;;22.54;38.50;101867.97;5004404;28;20064;-87
2022/05/10 09:06:15;;;;;;;5.68;4.03;;;;;;;22.51;36.67;101855.00;5006805;28;20509;-84
2022/05/10 09:08:51;;;;;;;6.90;3.42;;;;;;;22.51;35.17;101868.19;4977258;28;20045;-83
2022/05/10 09:11:17;;;;;;;6.40;3.30;;;;;;;22.53;34.08;101845.19;5004793;28;20030;-85
2022/05/10 09:13:42;;;;;;;6.38;3.60;;;;;;;22.79;36.23;101860.69;5000908;28;20085;-87
2022/05/10 09:16:09;;;;;;;4.43;3.22;;;;;;;22.79;33.60;101860.69;5007290;28;20455;-85
2022/05/10 09:18:46;;;;;;;5.13;4.07;;;;;;;22.77;33.72;101845.00;4964727;28;20057;-83
2022/05/10 09:21:17;;;;;;;7.15;3.38;;;;;;;22.98;33.97;101850.34;4995392;28;20603;-84
2022/05/10 09:24:10;;;;;;;8.47;7.00;;;;;;;23.32;33.01;101852.88;5008500;28;20022;-83
2022/05/10 09:26:46;;;;;;;6.53;3.65;;;;;;;23.45;31.92;101850.88;5010824;28;20048;-87
2022/05/10 09:29:44;;;;;;;6.07;3.50;;;;;;;23.66;31.21;101851.72;4994623;28;20036;-86
2022/05/10 09:35:07;;;;;;;7.20;3.72;;;;;;;23.72;31.43;101837.16;5003742;28;20049;-88
2022/05/10 09:37:34;;;;;;;5.97;3.53;;;;;;;23.59;31.30;101840.00;4986789;28;20589;-86
2022/05/10 09:40:30;;;;;;;7.43;3.50;;;;;;;23.63;31.37;101822.94;4993969;28;20096;-86
2022/05/10 09:43:22;;;;;;;5.15;3.20;;;;;;;23.95;30.55;101832.53;4991770;28;20078;-86
2022/05/10 09:46:07;;;;;;;;;;;;;;;24.10;31.22;101827.75;4989230;28;20073;-83
2022/05/10 09:48:33;;;;;;;7.55;3.80;;;;;;;24.15;31.74;101818.41;5002402;28;19923;-86
2022/05/10 09:50:58;;;;;;;7.93;3.50;;;;;;;24.27;33.14;101827.06;5009467;28;20045;-87
2022/05/10 09:53:28;;;;;;;4.57;3.55;;;;;;;24.29;31.70;101810.13;4993273;28;20514;-83
2022/05/10 09:56:22;;;;;;;6.05;3.50;;;;;;;24.53;31.27;101816.88;4992887;28;20037;-86
2022/05/10 09:58:59;;;;;;;4.75;3.30;;;;;;;24.48;33.71;101816.44;5008403;28;20026;-85
2022/05/10 10:01:45;;;;;;;10.95;3.70;;;;;;;24.66;30.39;101811.31;4994125;28;20088;-84
2022/05/10 10:04:20;;;;;;;12.25;8.57;;;;;;;24.67;30.45;101805.03;5009745;28;20025;-86
2022/05/10 10:07:05;;;;;;;6.45;3.58;;;;;;;24.67;30.03;101803.22;5004712;28;20022;-88
2022/05/10 10:09:32;;;;;;;4.68;3.53;;;;;;;24.58;31.09;101798.75;4996052;28;20029;-90
2022/05/10 10:11:57;;;;;;;6.85;3.60;;;;;;;24.50;30.57;101794.19;5021875;28;20034;-87
2022/05/10 10:14:46;;;;;;;6.18;3.17;;;;;;;24.45;30.57;101787.63;4978327;28;20042;-87
2022/05/10 10:17:38;;;;;;;8.25;3.42;;;;;;;24.69;30.90;101796.00;5011471;28;20045;-87
2022/05/10 10:20:24;;;;;;;7.43;3.03;;;;;;;25.00;29.05;101785.28;5009763;28;20042;-84
2022/05/10 10:22:51;;;;;;;6.28;3.15;;;;;;;25.28;29.56;101784.44;5009427;28;20026;-87
2022/05/10 10:25:32;;;;;;;4.45;2.80;;;;;;;25.35;29.46;101787.31;5001233;28;20044;-83
2022/05/10 10:28:02;;;;;;;4.95;2.88;;;;;;;25.34;27.80;101775.06;5012358;28;20040;-90
2022/05/10 10:30:38;;;;;;;6.93;2.92;;;;;;;25.51;27.88;101768.19;4994607;28;20030;-89
2022/05/10 10:33:03;;;;;;;4.38;2.75;;;;;;;25.72;27.12;101768.84;4999401;28;20521;-86
2022/05/10 10:35:43;;;;;;;5.35;3.05;;;;;;;25.61;28.61;101769.81;5010668;28;20026;-85
2022/05/10 10:38:11;;;;;;;5.57;2.72;;;;;;;25.68;26.03;101751.53;4993397;28;20030;-84
2022/05/10 10:40:42;;;;;;;6.38;2.47;;;;;;;25.80;26.98;101745.09;4992957;28;20132;-86
2022/05/10 10:43:16;;;;;;;4.68;2.80;;;;;;;26.14;26.77;101757.72;4993016;28;20022;-84
2022/05/10 10:45:47;;;;;;;4.60;2.42;;;;;;;26.13;25.45;101735.69;5009011;28;20030;-86
2022/05/10 10:48:21;;;;;;;4.63;2.60;;;;;;;26.33;25.18;101757.59;4997456;28;20407;-85
2022/05/10 10:50:47;;;;;;;7.72;2.85;;;;;;;26.14;25.47;101740.00;4999106;28;20081;-92
2022/05/10 10:53:12;;;;;;;6.10;2.58;;;;;;;25.89;24.92;101730.94;5009804;28;20065;-87
2022/05/10 10:55:44;;;;;;;3.85;2.80;;;;;;;26.10;25.67;101736.00;4994970;28;20041;-87
2022/05/10 10:58:28;;;;;;;4.43;2.72;;;;;;;26.14;24.75;101731.22;4992516;28;20038;-89
2022/05/10 11:01:30;;;;;;;4.75;2.72;;;;;;;26.33;24.94;101732.91;5002232;28;20099;-87
2022/05/10 11:04:33;;;;;;;7.22;2.60;;;;;;;26.40;23.94;101742.78;5025799;28;20022;-91
2022/05/10 11:06:59;;;;;;;4.20;2.40;;;;;;;26.40;24.40;101723.38;5011870;28;20045;-86
2022/05/10 11:10:22;;;;;;;3.50;2.25;;;;;;;26.51;24.37;101728.47;4993056;28;20022;-86
2022/05/10 11:13:29;;;;;;;4.45;2.70;;;;;;;26.50;24.52;101713.53;4965621;28;20041;-91
2022/05/10 11:16:30;;;;;;;7.10;2.58;;;;;;;26.69;24.87;101726.63;5019457;28;20030;-91
2022/05/10 11:18:58;;;;;;;5.88;2.80;;;;;;;26.81;24.01;101724.56;4999767;28;20103;-91
2022/05/10 11:21:54;;;;;;;6.88;2.70;;;;;;;26.90;24.78;101705.03;5013602;28;20034;-92
2022/05/10 11:24:26;;;;;;;6.43;2.80;;;;;;;27.15;23.10;101706.91;4996910;28;20029;-91
2022/05/10 11:27:04;;;;;;;4.75;2.53;;;;;;;27.12;23.44;101709.88;5010379;28;20433;-87
2022/05/10 11:29:53;;;;;;;4.90;2.72;;;;;;;26.74;23.38;101707.56;5013012;28;20041;-92
2022/05/10 11:32:27;;;;;;;5.28;3.00;;;;;;;26.49;24.21;101704.72;5009073;28;20026;-91
2022/05/10 11:35:05;;;;;;;6.50;3.20;;;;;;;26.52;24.66;101695.63;5010040;28;20149;-83
2022/05/10 11:37:35;;;;;;;15.20;13.60;;;;;;;26.66;24.07;101692.44;5009308;28;20034;-83
2022/05/10 11:40:19;;;;;;;4.90;2.90;;;;;;;26.93;23.58;101690.63;4992705;28;20033;-84
2022/05/10 11:43:27;;;;;;;15.15;11.52;;;;;;;27.24;23.09;101683.88;5010153;28;20026;-87
2022/05/10 11:46:22;;;;;;;14.77;13.27;;;;;;;27.42;22.83;101681.13;5008240;28;20026;-85
2022/05/10 11:49:24;;;;;;;8.73;6.57;;;;;;;27.39;23.09;101654.88;5007754;28;20034;-85
2022/05/10 11:51:53;;;;;;;;;;;;;;;27.22;22.96;101685.00;5000679;28;20049;-86